Time;durP1;ratioP1;P1;durP2;ratioP2;P2;SDS_P1;SDS_P2;PMS_P1;PMS_P2;Temp;Humidity;BMP_temperature;BMP_pressure;BME280_temperature;BME280_humidity;BME280_pressure;Samples;Min_cycle;Max_cycle;Signal;HPM_P1;HPM_P2
2022/04/27 00:01:23;;;;;;;9.02;7.25;;;;;;;;;;5103142;28;20216;-67
2022/04/27 00:03:50;;;;;;;7.63;7.03;;;;;;;;;;5103168;28;20261;-68
2022/04/27 00:06:16;;;;;;;8.13;7.53;;;;;;;;;;5102848;28;20557;-67
2022/04/27 00:08:42;;;;;;;8.57;7.68;;;;;;;;;;5103199;28;20495;-67
2022/04/27 00:11:10;;;;;;;9.05;8.02;;;;;;;;;;5103149;28;20192;-67
2022/04/27 00:13:36;;;;;;;7.85;7.25;;;;;;;;;;5103145;28;20362;-68
2022/04/27 00:16:02;;;;;;;9.07;8.27;;;;;;;;;;5102200;28;20556;-67
2022/04/27 00:18:29;;;;;;;10.30;9.40;;;;;;;;;;5102822;28;20199;-67
2022/04/27 00:20:55;;;;;;;9.77;8.85;;;;;;;;;;5103158;28;20253;-67
2022/04/27 00:23:25;;;;;;;10.30;9.20;;;;;;;;;;5103158;28;20200;-67
2022/04/27 00:25:51;;;;;;;9.45;8.60;;;;;;;;;;5102928;28;20234;-67
2022/04/27 00:28:18;;;;;;;10.68;9.10;;;;;;;;;;5102777;28;20200;-68
2022/04/27 00:30:45;;;;;;;9.73;8.93;;;;;;;;;;5102867;28;20241;-67
2022/04/27 00:33:11;;;;;;;9.75;8.85;;;;;;;;;;5102635;28;20196;-67
2022/04/27 00:35:37;;;;;;;9.80;8.90;;;;;;;;;;5102867;28;20232;-67
2022/04/27 00:38:04;;;;;;;11.52;10.20;;;;;;;;;;5102640;28;20196;-67
2022/04/27 00:40:30;;;;;;;10.73;9.63;;;;;;;;;;5102777;28;20188;-67
2022/04/27 00:42:56;;;;;;;10.00;8.90;;;;;;;;;;5102592;28;20208;-67
2022/04/27 00:45:24;;;;;;;10.50;9.50;;;;;;;;;;5102536;28;20391;-67
2022/04/27 00:47:50;;;;;;;11.93;10.32;;;;;;;;;;5102241;28;20507;-67
2022/04/27 00:50:16;;;;;;;11.30;10.10;;;;;;;;;;5102714;28;20265;-68
2022/04/27 00:52:43;;;;;;;10.70;9.63;;;;;;;;;;5102445;28;20196;-67
2022/04/27 00:55:10;;;;;;;11.23;10.15;;;;;;;;;;5102486;28;20211;-67
2022/04/27 00:57:39;;;;;;;10.35;9.35;;;;;;;;;;5102258;28;20196;-67
2022/04/27 01:00:07;;;;;;;12.65;10.30;;;;;;;;;;5102316;28;20495;-68
2022/04/27 01:02:35;;;;;;;11.73;10.40;;;;;;;;;;5102405;28;20272;-68
2022/04/27 01:05:03;;;;;;;12.68;10.98;;;;;;;;;;5102238;28;20235;-67
2022/04/27 01:07:29;;;;;;;10.95;9.88;;;;;;;;;;5102204;28;20490;-67
2022/04/27 01:09:55;;;;;;;10.90;9.93;;;;;;;;;;5102312;28;20204;-68
2022/04/27 01:12:22;;;;;;;12.43;11.23;;;;;;;;;;5102246;28;20386;-67
2022/04/27 01:14:49;;;;;;;12.15;10.18;;;;;;;;;;5102165;28;20203;-68
2022/04/27 01:17:15;;;;;;;10.95;9.85;;;;;;;;;;5102539;28;20196;-68
2022/04/27 01:19:43;;;;;;;10.98;9.98;;;;;;;;;;5102290;28;20196;-68
2022/04/27 01:22:11;;;;;;;11.07;9.88;;;;;;;;;;5101286;28;20215;-68
2022/04/27 01:24:37;;;;;;;12.35;11.13;;;;;;;;;;5102326;28;20196;-67
2022/04/27 01:27:04;;;;;;;10.98;9.93;;;;;;;;;;5102132;28;20249;-67
2022/04/27 01:29:31;;;;;;;13.52;9.48;;;;;;;;;;5105301;28;20199;-67
2022/04/27 01:32:00;;;;;;;11.43;10.32;;;;;;;;;;5106234;28;20199;-67
2022/04/27 01:34:26;;;;;;;11.98;10.68;;;;;;;;;;5106198;28;20196;-67
2022/04/27 01:36:54;;;;;;;11.23;10.13;;;;;;;;;;5105815;28;20495;-67
2022/04/27 01:39:23;;;;;;;11.75;10.65;;;;;;;;;;5105972;28;20199;-67
2022/04/27 01:41:50;;;;;;;12.15;10.55;;;;;;;;;;5105977;28;20216;-68
2022/04/27 01:44:16;;;;;;;13.35;11.95;;;;;;;;;;5106052;28;20203;-68
2022/04/27 01:46:42;;;;;;;14.15;11.45;;;;;;;;;;5105792;28;20196;-68
2022/04/27 01:49:08;;;;;;;12.55;11.18;;;;;;;;;;5105868;28;20207;-68
2022/04/27 01:54:18;;;;;;;12.00;10.35;;;;;;;;;;5105764;28;20233;-68
2022/04/27 01:56:47;;;;;;;12.70;11.13;;;;;;;;;;5105541;28;20503;-67
2022/04/27 01:59:13;;;;;;;12.63;11.35;;;;;;;;;;5105698;28;20196;-67
2022/04/27 02:01:40;;;;;;;12.02;10.75;;;;;;;;;;5105470;28;20242;-67
2022/04/27 02:04:06;;;;;;;13.25;11.95;;;;;;;;;;5105404;28;20203;-67
2022/04/27 02:06:35;;;;;;;12.63;11.15;;;;;;;;;;5105332;28;20220;-68
2022/04/27 02:09:01;;;;;;;13.15;11.25;;;;;;;;;;5105591;28;20395;-68
2022/04/27 02:11:28;;;;;;;13.15;11.85;;;;;;;;;;5105544;28;20191;-68
2022/04/27 02:13:55;;;;;;;13.82;11.32;;;;;;;;;;5105836;28;20195;-67
2022/04/27 02:16:22;;;;;;;13.18;11.77;;;;;;;;;;5104866;28;20195;-67
2022/04/27 02:18:48;;;;;;;12.60;11.27;;;;;;;;;;5105560;28;20432;-67
2022/04/27 02:21:15;;;;;;;13.13;11.30;;;;;;;;;;5105297;28;20195;-68
2022/04/27 02:23:41;;;;;;;13.30;11.77;;;;;;;;;;5105107;28;20241;-67
2022/04/27 02:26:08;;;;;;;12.57;11.35;;;;;;;;;;5105091;28;20202;-68
2022/04/27 02:28:34;;;;;;;12.95;11.50;;;;;;;;;;5105203;28;20200;-67
2022/04/27 02:31:02;;;;;;;12.55;11.32;;;;;;;;;;5104895;28;20196;-67
2022/04/27 02:33:29;;;;;;;13.10;11.38;;;;;;;;;;5105213;28;20195;-67
2022/04/27 02:35:55;;;;;;;13.82;11.98;;;;;;;;;;5105052;28;20219;-68
2022/04/27 02:38:22;;;;;;;14.65;12.43;;;;;;;;;;5104824;28;20202;-68
2022/04/27 02:40:48;;;;;;;13.63;12.25;;;;;;;;;;5104397;28;20196;-68
2022/04/27 02:43:15;;;;;;;13.70;12.07;;;;;;;;;;5104815;28;20538;-68
2022/04/27 02:45:41;;;;;;;13.30;11.98;;;;;;;;;;5104699;28;20204;-68
2022/04/27 02:48:09;;;;;;;13.77;12.07;;;;;;;;;;5104645;28;20196;-68
2022/04/27 02:53:19;;;;;;;14.75;13.20;;;;;;;;;;5104722;28;20518;-68
2022/04/27 02:55:45;;;;;;;13.45;12.05;;;;;;;;;;5104616;28;20195;-68
2022/04/27 02:58:12;;;;;;;16.08;13.25;;;;;;;;;;5104264;28;20202;-68
2022/04/27 03:00:39;;;;;;;18.05;13.82;;;;;;;;;;5104651;28;20200;-68
2022/04/27 03:03:07;;;;;;;15.82;12.48;;;;;;;;;;5104553;28;20227;-68
2022/04/27 03:05:34;;;;;;;15.63;13.10;;;;;;;;;;5104546;28;20223;-67
2022/04/27 03:08:00;;;;;;;13.75;12.30;;;;;;;;;;5104105;28;20203;-68
2022/04/27 03:10:27;;;;;;;16.48;13.77;;;;;;;;;;5104313;28;20241;-67
2022/04/27 03:12:53;;;;;;;15.27;12.52;;;;;;;;;;5104043;28;20192;-67
2022/04/27 03:15:19;;;;;;;15.48;13.85;;;;;;;;;;5104310;28;20202;-67
2022/04/27 03:18:16;;;;;;;15.63;12.82;;;;;;;;;;5104176;28;20233;-67
2022/04/27 03:20:31;;;;;;;15.35;13.32;;;;;;;;;;5103855;28;20218;-67
2022/04/27 03:22:59;;;;;;;16.48;13.25;;;;;;;;;;5104433;28;20261;-67
2022/04/27 03:25:26;;;;;;;14.95;13.45;;;;;;;;;;5104098;28;20203;-67
2022/04/27 03:27:52;;;;;;;16.48;13.18;;;;;;;;;;5103603;28;20200;-67
2022/04/27 03:30:18;;;;;;;16.00;13.80;;;;;;;;;;5103811;28;20207;-68
2022/04/27 03:32:44;;;;;;;16.65;13.43;;;;;;;;;;5103952;28;20237;-69
2022/04/27 03:35:11;;;;;;;16.10;14.40;;;;;;;;;;5103853;28;20195;-68
2022/04/27 03:37:37;;;;;;;16.33;14.63;;;;;;;;;;5103446;28;20385;-68
2022/04/27 03:40:06;;;;;;;15.98;13.95;;;;;;;;;;5103839;28;20492;-68
2022/04/27 03:42:32;;;;;;;16.38;14.35;;;;;;;;;;5103785;28;20223;-68
2022/04/27 03:44:58;;;;;;;17.23;14.27;;;;;;;;;;5103774;28;20219;-68
2022/04/27 03:47:25;;;;;;;16.98;14.27;;;;;;;;;;5103360;28;20199;-67
2022/04/27 03:49:51;;;;;;;19.27;15.07;;;;;;;;;;5103479;28;20199;-68
2022/04/27 03:52:18;;;;;;;16.10;14.00;;;;;;;;;;5103056;28;20191;-68
2022/04/27 03:54:45;;;;;;;16.25;14.50;;;;;;;;;;5103622;28;20195;-68
2022/04/27 03:57:12;;;;;;;19.08;15.45;;;;;;;;;;5103228;28;20204;-68
2022/04/27 03:59:38;;;;;;;18.20;14.40;;;;;;;;;;5103477;28;20195;-68
2022/04/27 04:02:06;;;;;;;16.05;14.05;;;;;;;;;;5103272;28;20227;-68
2022/04/27 04:04:32;;;;;;;16.33;14.63;;;;;;;;;;5103145;28;20202;-68
2022/04/27 04:06:59;;;;;;;17.20;14.90;;;;;;;;;;5102793;28;20195;-68
2022/04/27 04:09:25;;;;;;;17.88;15.32;;;;;;;;;;5103539;28;20363;-68
2022/04/27 04:11:52;;;;;;;19.38;15.35;;;;;;;;;;5103262;28;20200;-67
2022/04/27 04:14:19;;;;;;;18.52;15.98;;;;;;;;;;5103141;28;20234;-68
2022/04/27 04:16:45;;;;;;;19.38;16.52;;;;;;;;;;5102801;28;20203;-67
2022/04/27 04:19:12;;;;;;;25.38;19.42;;;;;;;;;;5102988;28;20238;-67
2022/04/27 04:21:39;;;;;;;20.75;16.90;;;;;;;;;;5102861;28;20195;-67
2022/04/27 04:24:05;;;;;;;21.65;17.30;;;;;;;;;;5102995;28;20192;-67
2022/04/27 04:29:16;;;;;;;18.45;16.15;;;;;;;;;;5103213;28;20233;-67
2022/04/27 04:31:43;;;;;;;23.25;17.83;;;;;;;;;;5102806;28;20202;-67
2022/04/27 04:34:09;;;;;;;21.50;17.05;;;;;;;;;;5102710;28;20211;-67
2022/04/27 04:36:36;;;;;;;21.83;18.00;;;;;;;;;;5102667;28;20233;-67
2022/04/27 04:39:02;;;;;;;21.30;17.27;;;;;;;;;;5102883;28;20196;-67
2022/04/27 04:41:28;;;;;;;18.60;16.20;;;;;;;;;;5102788;28;20241;-67
2022/04/27 04:43:54;;;;;;;22.80;17.63;;;;;;;;;;5102580;28;20226;-67
2022/04/27 04:46:21;;;;;;;20.42;17.48;;;;;;;;;;5102282;28;20203;-67
2022/04/27 04:48:48;;;;;;;19.67;15.75;;;;;;;;;;5102513;28;20200;-67
2022/04/27 04:51:15;;;;;;;21.40;16.98;;;;;;;;;;5102730;28;20202;-67
2022/04/27 04:53:41;;;;;;;20.50;16.73;;;;;;;;;;5102602;28;20192;-67
2022/04/27 04:56:07;;;;;;;20.88;16.85;;;;;;;;;;5102305;28;20200;-67
2022/04/27 04:58:33;;;;;;;19.33;16.48;;;;;;;;;;5102486;28;20196;-67
2022/04/27 05:01:01;;;;;;;18.40;16.40;;;;;;;;;;5102132;28;20208;-67
2022/04/27 05:03:27;;;;;;;21.15;15.75;;;;;;;;;;5102205;28;20211;-67
2022/04/27 05:05:55;;;;;;;23.83;17.75;;;;;;;;;;5102289;28;20268;-67
2022/04/27 05:08:21;;;;;;;22.60;17.27;;;;;;;;;;5102266;28;20511;-67
2022/04/27 05:10:47;;;;;;;20.70;16.45;;;;;;;;;;5102746;28;20441;-68
2022/04/27 05:13:14;;;;;;;20.83;17.33;;;;;;;;;;5102287;28;20191;-67
2022/04/27 05:15:40;;;;;;;23.25;17.95;;;;;;;;;;5102011;28;20503;-67
2022/04/27 05:18:06;;;;;;;21.05;18.10;;;;;;;;;;5102350;28;20210;-67
2022/04/27 05:20:32;;;;;;;22.92;18.08;;;;;;;;;;5102388;28;20200;-67
2022/04/27 05:23:00;;;;;;;22.30;18.70;;;;;;;;;;5102198;28;20215;-67
2022/04/27 05:25:26;;;;;;;23.67;18.83;;;;;;;;;;5102082;28;20196;-67
2022/04/27 05:27:53;;;;;;;23.38;18.45;;;;;;;;;;5101965;28;20204;-67
2022/04/27 05:33:03;;;;;;;25.83;19.27;;;;;;;;;;5102048;28;20206;-67
2022/04/27 05:35:29;;;;;;;21.63;17.50;;;;;;;;;;5102105;28;20196;-67
2022/04/27 05:37:55;;;;;;;22.65;17.63;;;;;;;;;;5101732;28;20207;-67
2022/04/27 05:40:25;;;;;;;21.67;18.08;;;;;;;;;;5101977;28;20196;-67
2022/04/27 05:42:51;;;;;;;23.75;19.10;;;;;;;;;;5101809;28;20554;-67
2022/04/27 05:45:19;;;;;;;22.75;18.33;;;;;;;;;;5102266;28;20204;-67
2022/04/27 05:47:45;;;;;;;24.85;19.08;;;;;;;;;;5101858;28;20208;-67
2022/04/27 05:50:12;;;;;;;23.25;19.75;;;;;;;;;;5101960;28;20196;-67
2022/04/27 05:52:58;;;;;;;26.58;18.83;;;;;;;;;;5101950;28;20192;-67
2022/04/27 05:55:25;;;;;;;26.63;21.10;;;;;;;;;;5101955;28;20208;-67
2022/04/27 05:57:52;;;;;;;25.88;20.10;;;;;;;;;;5101804;28;20503;-67
2022/04/27 06:00:19;;;;;;;26.90;20.05;;;;;;;;;;5101742;28;20242;-67
2022/04/27 06:02:46;;;;;;;26.95;21.23;;;;;;;;;;5101578;28;20806;-67
2022/04/27 06:05:12;;;;;;;23.52;18.73;;;;;;;;;;5101676;28;20215;-67
2022/04/27 06:07:38;;;;;;;24.98;20.00;;;;;;;;;;5101287;28;20489;-67
2022/04/27 06:10:05;;;;;;;22.33;18.38;;;;;;;;;;5090674;28;20212;-58
2022/04/27 06:12:36;;;;;;;27.25;20.95;;;;;;;;;;5093993;28;20471;-57
2022/04/27 06:15:03;;;;;;;26.63;20.55;;;;;;;;;;5098539;28;20207;-56
2022/04/27 06:17:29;;;;;;;27.42;20.83;;;;;;;;;;5101156;28;20203;-57
2022/04/27 06:19:55;;;;;;;28.77;21.77;;;;;;;;;;5099355;28;20253;-59
2022/04/27 06:22:22;;;;;;;27.90;21.48;;;;;;;;;;5102088;28;20393;-58
2022/04/27 06:24:48;;;;;;;24.42;19.88;;;;;;;;;;5101750;28;20204;-59
2022/04/27 06:27:14;;;;;;;29.02;21.77;;;;;;;;;;5101994;28;20203;-58
2022/04/27 06:29:42;;;;;;;27.30;20.75;;;;;;;;;;5102133;28;20203;-58
2022/04/27 06:32:08;;;;;;;26.65;21.35;;;;;;;;;;5101006;28;20207;-58
2022/04/27 06:34:34;;;;;;;25.23;20.83;;;;;;;;;;5102884;28;20199;-59
2022/04/27 06:37:01;;;;;;;23.92;19.50;;;;;;;;;;5101563;28;20204;-57
2022/04/27 06:39:27;;;;;;;26.48;20.95;;;;;;;;;;5102542;28;20203;-59
2022/04/27 06:41:53;;;;;;;23.90;19.55;;;;;;;;;;5102018;28;20211;-57
2022/04/27 06:44:19;;;;;;;23.77;18.70;;;;;;;;;;5102100;28;20231;-57
2022/04/27 06:46:47;;;;;;;22.77;18.20;;;;;;;;;;5101705;28;20204;-58
2022/04/27 06:49:13;;;;;;;24.20;18.30;;;;;;;;;;5101962;28;20204;-58
2022/04/27 06:51:40;;;;;;;20.50;16.88;;;;;;;;;;5100876;28;20245;-58
2022/04/27 06:54:06;;;;;;;20.48;16.98;;;;;;;;;;5101996;28;20207;-59
2022/04/27 06:56:32;;;;;;;20.27;16.42;;;;;;;;;;5101434;28;20511;-59
2022/04/27 06:58:58;;;;;;;22.52;17.08;;;;;;;;;;5101158;28;20516;-58
2022/04/27 07:01:25;;;;;;;22.58;17.20;;;;;;;;;;5101179;28;20212;-57
2022/04/27 07:03:55;;;;;;;23.50;17.55;;;;;;;;;;5100924;28;20234;-59
2022/04/27 07:06:22;;;;;;;21.65;16.70;;;;;;;;;;5079906;28;20228;-57
2022/04/27 07:08:48;;;;;;;20.27;16.55;;;;;;;;;;5082925;28;20204;-58
2022/04/27 07:11:15;;;;;;;22.75;17.45;;;;;;;;;;5089590;28;20204;-59
2022/04/27 07:13:41;;;;;;;21.63;17.50;;;;;;;;;;5097892;28;20423;-59
2022/04/27 07:16:07;;;;;;;23.30;16.73;;;;;;;;;;5100564;28;20207;-58
2022/04/27 07:18:33;;;;;;;23.10;18.00;;;;;;;;;;5100204;28;20517;-57
2022/04/27 07:21:03;;;;;;;24.80;19.73;;;;;;;;;;5100981;28;20218;-57
2022/04/27 07:23:30;;;;;;;25.75;19.00;;;;;;;;;;5101157;28;20519;-57
2022/04/27 07:25:56;;;;;;;22.60;18.70;;;;;;;;;;5100264;28;20204;-59
2022/04/27 07:28:22;;;;;;;23.13;17.77;;;;;;;;;;5100956;28;20285;-58
2022/04/27 07:30:48;;;;;;;25.42;18.85;;;;;;;;;;5100604;28;20208;-58
2022/04/27 07:33:15;;;;;;;28.85;18.80;;;;;;;;;;5100524;28;20207;-60
2022/04/27 07:35:41;;;;;;;21.70;17.55;;;;;;;;;;5100606;28;20203;-59
2022/04/27 07:38:08;;;;;;;22.60;17.52;;;;;;;;;;5083972;28;20208;-58
2022/04/27 07:40:35;;;;;;;21.02;17.20;;;;;;;;;;5080294;28;20204;-57
2022/04/27 07:43:01;;;;;;;21.90;16.88;;;;;;;;;;5080256;28;20259;-58
2022/04/27 07:45:28;;;;;;;24.80;17.92;;;;;;;;;;5080226;28;20532;-58
2022/04/27 07:47:55;;;;;;;20.63;16.92;;;;;;;;;;5079854;28;20204;-58
2022/04/27 07:50:21;;;;;;;21.08;16.75;;;;;;;;;;5079942;28;20554;-57
2022/04/27 07:52:47;;;;;;;20.58;15.98;;;;;;;;;;5080148;28;20215;-57
2022/04/27 07:55:15;;;;;;;21.85;16.02;;;;;;;;;;5079872;28;20516;-59
2022/04/27 07:57:41;;;;;;;15.50;12.60;;;;;;;;;;5079533;28;20211;-58
2022/04/27 08:00:09;;;;;;;13.30;11.38;;;;;;;;;;5079726;28;20204;-58
2022/04/27 08:02:35;;;;;;;13.27;10.77;;;;;;;;;;5079703;28;20257;-59
2022/04/27 08:05:02;;;;;;;11.05;9.98;;;;;;;;;;5089370;28;20231;-58
2022/04/27 08:07:34;;;;;;;12.07;9.90;;;;;;;;;;5100039;28;20207;-59
2022/04/27 08:10:05;;;;;;;11.90;10.65;;;;;;;;;;5100165;28;20203;-58
2022/04/27 08:12:33;;;;;;;12.27;10.20;;;;;;;;;;5099940;28;20417;-58
2022/04/27 08:14:59;;;;;;;9.65;8.70;;;;;;;;;;5100541;28;20423;-59
2022/04/27 08:17:25;;;;;;;10.23;8.90;;;;;;;;;;5099590;28;20211;-58
2022/04/27 08:21:13;;;;;;;9.50;8.50;;;;;;;;;;5099712;28;20449;-56
2022/04/27 08:22:38;;;;;;;9.10;8.20;;;;;;;;;;5099381;28;20234;-57
2022/04/27 08:25:05;;;;;;;9.30;8.40;;;;;;;;;;5099281;28;20260;-54
2022/04/27 08:27:32;;;;;;;9.85;8.90;;;;;;;;;;5098733;28;20203;-58
2022/04/27 08:29:59;;;;;;;11.13;8.85;;;;;;;;;;5099579;28;20204;-54
2022/04/27 08:32:25;;;;;;;12.02;8.20;;;;;;;;;;5099585;28;20523;-58
2022/04/27 08:34:51;;;;;;;9.15;7.85;;;;;;;;;;5099344;28;20206;-58
2022/04/27 08:37:17;;;;;;;7.97;7.18;;;;;;;;;;5099029;28;20204;-58
2022/04/27 08:39:44;;;;;;;9.45;7.88;;;;;;;;;;5099346;28;20204;-57
2022/04/27 08:42:10;;;;;;;7.43;6.70;;;;;;;;;;5099482;28;20210;-57
2022/04/27 08:44:38;;;;;;;9.48;7.72;;;;;;;;;;5099560;28;20265;-58
2022/04/27 08:47:05;;;;;;;10.48;7.60;;;;;;;;;;5099513;28;20204;-56
2022/04/27 08:49:33;;;;;;;11.05;9.75;;;;;;;;;;5099130;28;20207;-58
2022/04/27 08:52:00;;;;;;;12.98;10.27;;;;;;;;;;5099073;28;20207;-56
2022/04/27 08:54:26;;;;;;;10.88;9.70;;;;;;;;;;5099224;28;20215;-57
2022/04/27 08:56:53;;;;;;;11.73;9.25;;;;;;;;;;5099409;28;20510;-56
2022/04/27 08:59:19;;;;;;;11.77;9.38;;;;;;;;;;5099862;28;20196;-56
2022/04/27 09:01:47;;;;;;;11.75;10.20;;;;;;;;;;5099769;28;20219;-57
2022/04/27 09:04:15;;;;;;;12.48;9.85;;;;;;;;;;5099556;28;20415;-57
2022/04/27 09:06:41;;;;;;;12.00;10.30;;;;;;;;;;5099210;28;20437;-58
2022/04/27 09:09:10;;;;;;;11.20;9.48;;;;;;;;;;5099388;28;20566;-58
2022/04/27 09:11:37;;;;;;;9.73;8.15;;;;;;;;;;5098916;28;20227;-58
2022/04/27 09:14:06;;;;;;;9.63;8.20;;;;;;;;;;5099039;28;20462;-59
2022/04/27 09:20:46;;;;;;;9.65;7.68;;;;;;;;;;5099456;28;20208;-58
2022/04/27 09:22:07;;;;;;;8.90;7.88;;;;;;;;;;5096714;28;20214;-58
2022/04/27 09:24:47;;;;;;;10.75;9.65;;;;;;;;;;5096476;28;20231;-57
2022/04/27 09:27:16;;;;;;;9.48;7.75;;;;;;;;;;5096273;28;20253;-57
2022/04/27 09:29:42;;;;;;;9.45;8.40;;;;;;;;;;5096188;28;20464;-58
2022/04/27 09:32:14;;;;;;;9.45;8.45;;;;;;;;;;5096245;28;20409;-58
2022/04/27 09:34:45;;;;;;;10.45;9.10;;;;;;;;;;5096342;28;20211;-58
2022/04/27 09:37:16;;;;;;;9.18;8.27;;;;;;;;;;5096177;28;20204;-58
2022/04/27 09:39:42;;;;;;;10.50;9.23;;;;;;;;;;5096272;28;20239;-59
2022/04/27 09:42:10;;;;;;;10.63;9.52;;;;;;;;;;5096296;28;20492;-59
2022/04/27 09:44:37;;;;;;;8.93;8.10;;;;;;;;;;5096210;28;20555;-58
2022/04/27 09:47:04;;;;;;;9.65;7.57;;;;;;;;;;5096133;28;20387;-59
2022/04/27 09:49:31;;;;;;;8.00;7.22;;;;;;;;;;5097422;28;20230;-60
2022/04/27 09:52:00;;;;;;;8.27;7.47;;;;;;;;;;5099918;28;20208;-59
2022/04/27 09:54:28;;;;;;;8.52;7.80;;;;;;;;;;5100622;28;20199;-59
2022/04/27 09:56:55;;;;;;;8.30;7.47;;;;;;;;;;5099910;28;20235;-60
2022/04/27 09:59:26;;;;;;;9.13;8.20;;;;;;;;;;5100037;28;20213;-60
2022/04/27 10:01:54;;;;;;;9.20;7.30;;;;;;;;;;5099574;28;20222;-60
2022/04/27 10:04:21;;;;;;;7.32;6.72;;;;;;;;;;5099574;28;20227;-59
2022/04/27 10:06:48;;;;;;;8.40;7.70;;;;;;;;;;5099276;28;20224;-56
2022/04/27 10:09:16;;;;;;;8.57;7.55;;;;;;;;;;5099691;28;20208;-58
2022/04/27 10:11:42;;;;;;;7.18;6.57;;;;;;;;;;5099292;28;20386;-56
2022/04/27 10:14:09;;;;;;;6.15;5.65;;;;;;;;;;5099065;28;20522;-58
2022/04/27 10:16:35;;;;;;;6.90;6.20;;;;;;;;;;5098701;28;20265;-57
2022/04/27 10:19:01;;;;;;;7.90;6.13;;;;;;;;;;5098957;28;20200;-59
2022/04/27 10:21:39;;;;;;;6.78;6.15;;;;;;;;;;5098713;28;20207;-56
2022/04/27 10:24:05;;;;;;;5.97;5.47;;;;;;;;;;5098739;28;20219;-57
2022/04/27 10:26:33;;;;;;;6.50;5.90;;;;;;;;;;5098985;28;20443;-57
2022/04/27 10:29:00;;;;;;;8.15;7.28;;;;;;;;;;5098911;28;20330;-54
2022/04/27 10:31:51;;;;;;;7.07;6.40;;;;;;;;;;5098630;28;20208;-55
2022/04/27 10:34:19;;;;;;;22.67;16.08;;;;;;;;;;5083043;28;20249;-55
2022/04/27 10:36:47;;;;;;;17.67;12.90;;;;;;;;;;5098687;28;20215;-55
2022/04/27 10:39:20;;;;;;;6.60;6.00;;;;;;;;;;5098933;28;20216;-55
2022/04/27 10:42:04;;;;;;;5.05;4.72;;;;;;;;;;5098598;28;20227;-55
2022/04/27 10:44:49;;;;;;;5.60;5.10;;;;;;;;;;5088417;28;20234;-55
2022/04/27 10:47:18;;;;;;;5.10;4.70;;;;;;;;;;5098741;28;20269;-57
2022/04/27 10:49:46;;;;;;;4.85;4.55;;;;;;;;;;5098586;28;20207;-56
2022/04/27 10:52:13;;;;;;;4.97;4.68;;;;;;;;;;5098470;28;20215;-56
2022/04/27 10:54:40;;;;;;;4.60;4.28;;;;;;;;;;5098360;28;20286;-54
2022/04/27 10:57:24;;;;;;;3.72;3.50;;;;;;;;;;5098502;28;20381;-54
2022/04/27 10:59:51;;;;;;;3.60;3.40;;;;;;;;;;5097228;28;20207;-56
2022/04/27 11:02:35;;;;;;;3.22;2.95;;;;;;;;;;5090917;28;20573;-57
2022/04/27 11:05:01;;;;;;;3.17;3.08;;;;;;;;;;5090356;28;20224;-57
2022/04/27 11:07:32;;;;;;;3.83;3.50;;;;;;;;;;5086023;28;20543;-60
2022/04/27 11:10:07;;;;;;;4.00;3.70;;;;;;;;;;5077628;28;20291;-59
2022/04/27 11:12:36;;;;;;;4.28;3.97;;;;;;;;;;5078001;28;20565;-63
2022/04/27 11:15:03;;;;;;;4.15;3.85;;;;;;;;;;5078061;28;20516;-63
2022/04/27 11:17:30;;;;;;;8.05;7.25;;;;;;;;;;5077642;28;20212;-60
2022/04/27 11:19:58;;;;;;;5.65;5.15;;;;;;;;;;5077599;28;20209;-59
2022/04/27 11:22:24;;;;;;;383.80;82.43;;;;;;;;;;5077286;28;20212;-61
2022/04/27 11:24:50;;;;;;;217.68;39.47;;;;;;;;;;5077585;28;20228;-61
2022/04/27 11:27:22;;;;;;;25.90;13.02;;;;;;;;;;5077452;28;20209;-61
2022/04/27 11:29:49;;;;;;;48.20;20.42;;;;;;;;;;5077355;28;20228;-61
2022/04/27 11:32:16;;;;;;;5.63;4.45;;;;;;;;;;5077880;28;20208;-62
2022/04/27 11:34:47;;;;;;;120.75;20.55;;;;;;;;;;5077919;28;20273;-62
2022/04/27 11:37:16;;;;;;;10.48;5.53;;;;;;;;;;5077668;28;20477;-62
2022/04/27 11:39:43;;;;;;;4.95;4.40;;;;;;;;;;5077721;28;20209;-62
2022/04/27 11:42:12;;;;;;;5.80;4.57;;;;;;;;;;5077766;28;20215;-61
2022/04/27 11:44:38;;;;;;;4.53;4.22;;;;;;;;;;5077434;28;20224;-62
2022/04/27 11:47:05;;;;;;;4.10;3.88;;;;;;;;;;5077481;28;20250;-62
2022/04/27 11:49:31;;;;;;;4.95;3.50;;;;;;;;;;5077168;28;20208;-62
2022/04/27 11:51:57;;;;;;;3.78;3.58;;;;;;;;;;5077382;28;20220;-62
2022/04/27 11:54:28;;;;;;;4.60;3.70;;;;;;;;;;5078025;28;20208;-62
2022/04/27 11:56:56;;;;;;;3.72;3.42;;;;;;;;;;5077217;28;20212;-61
2022/04/27 11:59:22;;;;;;;5.18;4.68;;;;;;;;;;5077641;28;20208;-62
2022/04/27 12:01:51;;;;;;;5.28;4.13;;;;;;;;;;5077189;28;20258;-62
2022/04/27 12:04:17;;;;;;;3.85;3.65;;;;;;;;;;5080793;28;20204;-62
2022/04/27 12:06:44;;;;;;;3.75;3.50;;;;;;;;;;5097333;28;20227;-62
2022/04/27 12:09:15;;;;;;;4.13;3.90;;;;;;;;;;5097370;28;20200;-62
2022/04/27 12:11:43;;;;;;;4.15;3.47;;;;;;;;;;5076315;28;20228;-61
2022/04/27 12:14:09;;;;;;;4.57;4.18;;;;;;;;;;5077387;28;20212;-61
2022/04/27 12:16:35;;;;;;;4.15;3.85;;;;;;;;;;5076818;28;20559;-61
2022/04/27 12:19:02;;;;;;;3.47;3.35;;;;;;;;;;5077112;28;20213;-60
2022/04/27 12:21:29;;;;;;;3.60;3.40;;;;;;;;;;5076979;28;20453;-71
2022/04/27 12:23:56;;;;;;;4.60;4.13;;;;;;;;;;5077181;28;20258;-71
2022/04/27 12:26:23;;;;;;;3.78;3.58;;;;;;;;;;5076652;28;20232;-71
2022/04/27 12:28:51;;;;;;;3.53;3.40;;;;;;;;;;5077047;28;20212;-71
2022/04/27 12:31:19;;;;;;;3.55;3.38;;;;;;;;;;5076721;28;20205;-71
2022/04/27 12:33:47;;;;;;;3.60;3.40;;;;;;;;;;5077456;28;20208;-71
2022/04/27 12:38:59;;;;;;;3.83;3.50;;;;;;;;;;5076935;28;20242;-71
2022/04/27 12:41:32;;;;;;;3.70;3.40;;;;;;;;;;5076262;28;20208;-71
2022/04/27 12:44:05;;;;;;;2.95;2.75;;;;;;;;;;5076951;28;20209;-72
2022/04/27 12:46:31;;;;;;;3.88;3.40;;;;;;;;;;5076448;28;20420;-71
2022/04/27 12:49:00;;;;;;;3.20;3.00;;;;;;;;;;5076770;28;20208;-71
2022/04/27 12:51:28;;;;;;;2.97;2.60;;;;;;;;;;5076332;28;20219;-71
2022/04/27 12:53:55;;;;;;;3.00;2.90;;;;;;;;;;5076472;28;20512;-71
2022/04/27 12:56:22;;;;;;;2.78;2.67;;;;;;;;;;5076363;28;20405;-71
2022/04/27 12:59:02;;;;;;;2.60;2.50;;;;;;;;;;5076628;28;20239;-71
2022/04/27 13:01:30;;;;;;;3.65;2.50;;;;;;;;;;5076374;28;20227;-71
2022/04/27 13:03:56;;;;;;;3.15;2.30;;;;;;;;;;5076887;28;20215;-71
2022/04/27 13:06:23;;;;;;;2.45;2.30;;;;;;;;;;5096175;28;20231;-71
2022/04/27 13:08:49;;;;;;;2.70;2.50;;;;;;;;;;5096778;28;20276;-71
2022/04/27 13:13:59;;;;;;;1.90;1.90;;;;;;;;;;5097204;28;20210;-71
2022/04/27 13:16:25;;;;;;;3.97;3.78;;;;;;;;;;5096479;28;20203;-71
2022/04/27 13:18:54;;;;;;;2.17;2.08;;;;;;;;;;5096610;28;20420;-71
2022/04/27 13:21:21;;;;;;;1.95;1.90;;;;;;;;;;5096316;28;20208;-71
2022/04/27 13:23:47;;;;;;;2.33;2.20;;;;;;;;;;5098415;28;20408;-71
2022/04/27 13:26:13;;;;;;;2.22;2.03;;;;;;;;;;5100295;28;20465;-71
2022/04/27 13:28:40;;;;;;;1.80;1.80;;;;;;;;;;5100736;28;20211;-71
2022/04/27 13:31:06;;;;;;;2.00;2.00;;;;;;;;;;5100558;28;20411;-71
2022/04/27 13:33:33;;;;;;;2.45;1.95;;;;;;;;;;5100693;28;20226;-71
2022/04/27 13:36:00;;;;;;;2.63;2.53;;;;;;;;;;5100234;28;20202;-71
2022/04/27 13:38:27;;;;;;;4.30;2.70;;;;;;;;;;5100663;28;20211;-71
2022/04/27 13:40:54;;;;;;;2.33;2.13;;;;;;;;;;5100006;28;20208;-71
2022/04/27 13:43:20;;;;;;;2.72;2.63;;;;;;;;;;5100287;28;20211;-71
2022/04/27 13:45:47;;;;;;;3.25;3.03;;;;;;;;;;5100389;28;20421;-71
2022/04/27 13:48:13;;;;;;;3.05;2.95;;;;;;;;;;5100234;28;20212;-71
2022/04/27 13:50:39;;;;;;;4.05;3.05;;;;;;;;;;5099966;28;20212;-71
2022/04/27 13:53:07;;;;;;;3.38;3.15;;;;;;;;;;5100492;28;20207;-71
2022/04/27 13:55:35;;;;;;;3.30;3.20;;;;;;;;;;5100137;28;20207;-71
2022/04/27 13:58:01;;;;;;;3.50;3.20;;;;;;;;;;5100177;28;20208;-71
2022/04/27 14:00:28;;;;;;;3.50;3.22;;;;;;;;;;5100152;28;20239;-71
2022/04/27 14:02:54;;;;;;;3.28;3.17;;;;;;;;;;5100228;28;20389;-71
2022/04/27 14:05:21;;;;;;;3.15;3.05;;;;;;;;;;5099520;28;20547;-71
2022/04/27 14:07:47;;;;;;;3.70;3.50;;;;;;;;;;5099359;28;20204;-71
2022/04/27 14:10:16;;;;;;;3.20;3.10;;;;;;;;;;5099472;28;20204;-71
2022/04/27 14:15:26;;;;;;;3.00;2.72;;;;;;;;;;5100024;28;20206;-72
2022/04/27 14:18:10;;;;;;;2.95;2.85;;;;;;;;;;5100090;28;20207;-72
2022/04/27 14:20:36;;;;;;;3.30;3.05;;;;;;;;;;5099146;28;20217;-71
2022/04/27 14:23:02;;;;;;;2.88;2.70;;;;;;;;;;5099782;28;20215;-71
2022/04/27 14:25:30;;;;;;;3.20;3.00;;;;;;;;;;5099626;28;20231;-71
2022/04/27 14:27:56;;;;;;;3.03;2.83;;;;;;;;;;5099436;28;20214;-71
2022/04/27 14:30:24;;;;;;;3.30;3.10;;;;;;;;;;5099879;28;20541;-73
2022/04/27 14:32:51;;;;;;;2.97;2.88;;;;;;;;;;5100003;28;20214;-71
2022/04/27 14:35:17;;;;;;;3.22;3.10;;;;;;;;;;5099211;28;20196;-71
2022/04/27 14:37:44;;;;;;;2.92;2.65;;;;;;;;;;5099383;28;20221;-72
2022/04/27 14:40:11;;;;;;;2.78;2.58;;;;;;;;;;5099254;28;20241;-71
2022/04/27 14:42:39;;;;;;;2.55;2.45;;;;;;;;;;5099328;28;20212;-70
2022/04/27 14:45:07;;;;;;;2.45;2.17;;;;;;;;;;5099382;28;20512;-71
2022/04/27 14:47:33;;;;;;;2.22;2.13;;;;;;;;;;5099072;28;20249;-70
2022/04/27 14:50:00;;;;;;;2.20;2.10;;;;;;;;;;5099192;28;20211;-71
2022/04/27 14:52:26;;;;;;;3.40;2.35;;;;;;;;;;5099281;28;20375;-71